Time;durP1;ratioP1;P1;durP2;ratioP2;P2;SDS_P1;SDS_P2;PMS_P1;PMS_P2;Temp;Humidity;BMP_temperature;BMP_pressure;BME280_temperature;BME280_humidity;BME280_pressure;Samples;Min_cycle;Max_cycle;Signal;HPM_P1;HPM_P2
2022/06/20 00:00:20;;;;;;;;;;;;;;;;;;;;;
2022/06/20 00:03:18;;;;;;;;;;;;;;;17.79;74.01;100954.44;4946953;28;19955;-92
2022/06/20 00:06:38;;;;;;;;;;;;;;;17.83;73.86;100947.59;5026604;28;19924;-93
2022/06/20 00:09:09;;;;;;;;;;;;;;;17.83;73.65;100948.44;5006068;28;19968;-91
2022/06/20 00:11:58;;;;;;;;;;;;;;;;;;;;;
2022/06/20 00:15:00;;;;;;;;;;;;;;;17.79;73.97;100941.69;5021190;28;19924;-92
2022/06/20 00:17:53;;;;;;;;;;;;;;;;;;;;;
2022/06/20 00:20:43;;;;;;;;;;;;;;;;;;;;;
2022/06/20 00:23:34;;;;;;;;;;;;;;;;;;;;;
2022/06/20 00:26:23;;;;;;;;;;;;;;;17.76;74.03;100936.66;5009513;28;19917;-92
2022/06/20 00:29:01;;;;;;;;;;;;;;;17.77;73.80;100932.06;4998194;28;19913;-91
2022/06/20 00:31:38;;;;;;;;;;;;;;;;;;;;;
2022/06/20 00:34:33;;;;;;;;;;;;;;;;;;;;;
2022/06/20 00:37:19;;;;;;;;;;;;;;;;;;;;;
2022/06/20 00:39:50;;;;;;;;;;;;;;;17.70;73.76;100934.78;5031499;28;19952;-91
2022/06/20 00:42:46;;;;;;;;;;;;;;;;;;;;;
2022/06/20 00:45:25;;;;;;;;;;;;;;;;;;;;;
2022/06/20 00:48:15;;;;;;;;;;;;;;;17.55;74.35;100918.56;4989046;28;19998;-92
2022/06/20 00:51:01;;;;;;;;;;;;;;;;;;;;;
2022/06/20 00:53:59;;;;;;;;;;;;;;;17.56;74.47;100911.25;4944453;29;19911;-92
2022/06/20 00:59:47;;;;;;;;;;;;;;;17.55;74.11;100909.56;4925977;29;19915;-92
2022/06/20 01:02:56;;;;;;;;;;;;;;;;;;;;;
2022/06/20 01:05:36;;;;;;;;;;;;;;;17.52;74.34;100911.66;4927146;28;19942;-90
2022/06/20 01:08:43;;;;;;;;;;;;;;;;;;;;;
2022/06/20 01:11:38;;;;;;;;;;;;;;;;;;;;;
2022/06/20 01:14:24;;;;;;;;;;;;;;;17.49;74.61;100901.19;4906618;29;19962;-92
2022/06/20 01:17:11;;;;;;;;;;;;;;;17.45;74.31;100902.63;4918123;29;19923;-92
2022/06/20 01:20:10;;;;;;;;;;;;;;;17.47;74.22;100897.00;4932069;28;19916;-92
2022/06/20 01:23:16;;;;;;;;;;;;;;;17.47;73.87;100897.84;4895267;29;19916;-92
2022/06/20 01:26:13;;;;;;;;;;;;;;;;;;;;;
2022/06/20 01:29:07;;;;;;;;;;;;;;;;;;;;;
2022/06/20 01:32:09;;;;;;;;;;;;;;;;;;;;;
2022/06/20 01:37:23;;;;;;;;;;;;;;;17.29;75.80;100900.22;4911141;29;19982;-91
2022/06/20 01:38:25;;;;;;;;;;;;;;;;;;;;;
2022/06/20 01:44:47;;;;;;;;;;;;;;;;;;;;;
2022/06/20 01:47:38;;;;;;;;;;;;;;;;;;;;;
2022/06/20 01:50:38;;;;;;;;;;;;;;;;;;;;;
2022/06/20 01:53:45;;;;;;;;;;;;;;;;;;;;;
2022/06/20 01:59:21;;;;;;;;;;;;;;;;;;;;;
2022/06/20 02:02:04;;;;;;;;;;;;;;;17.18;74.69;100906.19;4913106;29;19947;-91
2022/06/20 02:07:26;;;;;;;;;;;;;;;17.15;74.88;100909.31;4901990;29;19930;-91
2022/06/20 02:10:03;;;;;;;;;;;;;;;;;;;;;
2022/06/20 02:13:02;;;;;;;;;;;;;;;;;;;;;
2022/06/20 02:15:34;;;;;;;;;;;;;;;17.00;75.55;100904.00;4904970;29;20478;-90
2022/06/20 02:18:52;;;;;;;;;;;;;;;;;;;;;
2022/06/20 02:21:46;;;;;;;;;;;;;;;;;;;;;
2022/06/20 02:23:52;;;;;;;;;;;;;;;17.01;75.62;100903.78;4909743;29;19911;-91
2022/06/20 02:26:50;;;;;;;;;;;;;;;;;;;;;
2022/06/20 02:29:31;;;;;;;;;;;;;;;16.95;76.36;100901.00;4909348;29;20014;-92
2022/06/20 02:32:30;;;;;;;;;;;;;;;16.95;76.11;100901.00;4895768;29;19959;-91
2022/06/20 02:35:01;;;;;;;;;;;;;;;16.92;76.41;100893.28;4902670;29;19939;-92
2022/06/20 02:38:05;;;;;;;;;;;;;;;;;;;;;
2022/06/20 02:41:08;;;;;;;;;;;;;;;16.89;76.58;100889.06;4913787;29;19920;-91
2022/06/20 02:43:51;;;;;;;;;;;;;;;16.90;76.52;100889.91;4929156;28;19918;-91
2022/06/20 02:46:25;;;;;;;;;;;;;;;16.90;76.27;100890.75;4973910;28;20060;-90
2022/06/20 02:55:20;;;;;;;;;;;;;;;;;;;;;
2022/06/20 02:58:04;;;;;;;;;;;;;;;16.92;76.39;100883.25;4945804;28;19973;-91
2022/06/20 03:01:05;;;;;;;;;;;;;;;;;;;;;
2022/06/20 03:03:45;;;;;;;;;;;;;;;;;;;;;
2022/06/20 03:06:37;;;;;;;;;;;;;;;16.99;75.91;100884.13;4977923;28;20001;-92
2022/06/20 03:09:05;;;;;;;;;;;;;;;17.00;75.76;100887.72;4974891;28;19914;-91
2022/06/20 03:12:26;;;;;;;;;;;;;;;17.05;75.99;100891.50;4969047;28;19940;-92
2022/06/20 03:14:48;;;;;;;;;;;;;;;;;;;;;
2022/06/20 03:17:26;;;;;;;;;;;;;;;17.14;75.45;100885.91;4948790;28;19982;-92
2022/06/20 03:20:30;;;;;;;;;;;;;;;;;;;;;
2022/06/20 03:23:19;;;;;;;;;;;;;;;17.14;75.89;100875.03;4955192;28;19922;-90
2022/06/20 03:26:09;;;;;;;;;;;;;;;;;;;;;
2022/06/20 03:29:16;;;;;;;;;;;;;;;17.22;75.56;100883.03;4974974;28;19916;-90
2022/06/20 03:31:56;;;;;;;;;;;;;;;;;;;;;
2022/06/20 03:34:51;;;;;;;;;;;;;;;17.27;75.41;100877.84;4959013;28;19918;-91
2022/06/20 03:37:39;;;;;;;;;;;;;;;;;;;;;
2022/06/20 03:40:17;;;;;;;;;;;;;;;17.34;75.33;100870.56;4986322;28;19972;-92
2022/06/20 03:43:12;;;;;;;;;;;;;;;;;;;;;
2022/06/20 03:46:10;;;;;;;;;;;;;;;;;;;;;
2022/06/20 03:48:42;;;;;;;;;;;;;;;17.43;75.09;100868.53;4982704;28;19928;-90
2022/06/20 03:51:19;;;;;;;;;;;;;;;;;;;;;
2022/06/20 03:54:13;;;;;;;;;;;;;;;17.55;74.81;100872.34;4974853;28;19956;-92
2022/06/20 03:57:02;;;;;;;;;;;;;;;;;;;;;
2022/06/20 03:59:47;;;;;;;;;;;;;;;;;;;;;
2022/06/20 04:02:44;;;;;;;;;;;;;;;17.80;74.53;100872.69;4978339;28;19981;-93
2022/06/20 04:05:33;;;;;;;;;;;;;;;;;;;;;
2022/06/20 04:08:22;;;;;;;;;;;;;;;;;;;;;
2022/06/20 04:11:15;;;;;;;;;;;;;;;;;;;;;
2022/06/20 04:14:13;;;;;;;;;;;;;;;;;;;;;
2022/06/20 04:16:56;;;;;;;;;;;;;;;;;;;;;
2022/06/20 04:20:02;;;;;;;;;;;;;;;;;;;;;
2022/06/20 04:23:28;;;;;;;;;;;;;;;;;;;;;
2022/06/20 04:26:00;;;;;;;;;;;;;;;;;;;;;
2022/06/20 04:28:53;;;;;;;;;;;;;;;;;;;;;
2022/06/20 04:31:44;;;;;;;;;;;;;;;19.92;67.27;100867.41;4973299;28;20012;-91
2022/06/20 04:34:42;;;;;;;;;;;;;;;;;;;;;
2022/06/20 04:37:47;;;;;;;;;;;;;;;;;;;;;
2022/06/20 04:40:27;;;;;;;;;;;;;;;20.53;65.39;100871.44;4951192;29;19965;-91
2022/06/20 04:43:15;;;;;;;;;;;;;;;20.71;64.69;100873.44;4979301;28;19902;-92
2022/06/20 04:46:12;;;;;;;;;;;;;;;20.93;64.43;100871.13;5006034;28;19917;-94
2022/06/20 04:48:49;;;;;;;;;;;;;;;20.95;63.33;100877.22;4995575;28;20802;-94
2022/06/20 04:51:32;;;;;;;;;;;;;;;21.21;63.36;100874.25;4990529;28;19909;-92
2022/06/20 04:54:12;;;;;;;;;;;;;;;21.42;62.21;100863.94;5010767;28;19905;-93
2022/06/20 04:56:45;;;;;;;;;;;;;;;21.65;62.20;100868.72;5001498;28;19914;-95
2022/06/20 04:59:14;;;;;;;;;;;;;;;21.81;61.25;100864.53;4999813;28;19956;-91
2022/06/20 05:02:03;;;;;;;;;;;;;;;;;;;;;
2022/06/20 05:04:57;;;;;;;;;;;;;;;;;;;;;
2022/06/20 05:07:48;;;;;;;;;;;;;;;;;;;;;
2022/06/20 05:10:29;;;;;;;;;;;;;;;22.77;57.97;100860.78;5005523;28;19973;-92
2022/06/20 05:13:12;;;;;;;;;;;;;;;;;;;;;
2022/06/20 05:16:15;;;;;;;;;;;;;;;;;;;;;
2022/06/20 05:18:52;;;;;;;;;;;;;;;;;;;;;
2022/06/20 05:21:32;;;;;;;;;;;;;;;;;;;;;
2022/06/20 05:24:08;;;;;;;;;;;;;;;23.02;57.10;100859.75;5002303;28;19996;-92
2022/06/20 05:27:07;;;;;;;;;;;;;;;;;;;;;
2022/06/20 05:30:03;;;;;;;;;;;;;;;;;;;;;
2022/06/20 05:32:59;;;;;;;;;;;;;;;23.46;56.64;100867.56;4991469;28;20005;-91
2022/06/20 05:35:57;;;;;;;;;;;;;;;;;;;;;
2022/06/20 05:38:53;;;;;;;;;;;;;;;;;;;;;
2022/06/20 05:41:31;;;;;;;;;;;;;;;;;;;;;
2022/06/20 05:44:00;;;;;;;;;;;;;;;23.88;56.50;100868.22;5015684;28;19948;-93
2022/06/20 05:46:51;;;;;;;;;;;;;;;;;;;;;
2022/06/20 05:49:25;;;;;;;;;;;;;;;24.36;55.10;100864.16;5006193;28;20310;-92
2022/06/20 05:52:00;;;;;;;;;;;;;;;;;;;;;
2022/06/20 05:54:40;;;;;;;;;;;;;;;23.98;55.43;100862.94;4989093;28;19933;-91
2022/06/20 05:57:19;;;;;;;;;;;;;;;;;;;;;
2022/06/20 06:00:01;;;;;;;;;;;;;;;24.01;54.69;100862.44;5003128;28;20020;-90
2022/06/20 06:02:39;;;;;;;;;;;;;;;23.63;56.33;100865.75;4987987;28;20278;-91
2022/06/20 06:05:18;;;;;;;;;;;;;;;23.98;55.72;100857.44;5018942;28;19921;-91
2022/06/20 06:08:11;;;;;;;;;;;;;;;;;;;;;
2022/06/20 06:10:53;;;;;;;;;;;;;;;23.70;56.82;100860.97;5004161;28;20008;-90
2022/06/20 06:13:47;;;;;;;;;;;;;;;;;;;;;
2022/06/20 06:19:29;;;;;;;;;;;;;;;23.86;56.80;100859.41;5002924;28;20341;-90
2022/06/20 06:22:25;;;;;;;;;;;;;;;;;;;;;
2022/06/20 06:25:26;;;;;;;;;;;;;;;24.00;56.75;100849.78;5005548;28;19993;-89
2022/06/20 06:28:05;;;;;;;;;;;;;;;23.97;55.85;100838.44;4985540;28;19964;-89
2022/06/20 06:30:52;;;;;;;;;;;;;;;24.31;54.58;100844.03;4982604;28;19916;-90
2022/06/20 06:33:37;;;;;;;;;;;;;;;24.27;53.79;100840.94;5001991;28;19913;-90
2022/06/20 06:36:30;;;;;;;;;;;;;;;;;;;;;
2022/06/20 06:39:36;;;;;;;;;;;;;;;;;;;;;
2022/06/20 06:42:06;;;;;;;;;;;;;;;24.61;53.14;100836.31;4939862;28;20010;-90
2022/06/20 06:44:55;;;;;;;;;;;;;;;24.59;53.47;100834.91;4989532;28;19914;-92
2022/06/20 06:47:39;;;;;;;;;;;;;;;;;;;;;
2022/06/20 06:50:37;;;;;;;;;;;;;;;24.68;53.36;100827.91;4999966;28;20473;-88
2022/06/20 06:56:36;;;;;;;;;;;;;;;24.91;52.37;100815.03;5014473;28;19925;-89
2022/06/20 06:59:14;;;;;;;;;;;;;;;;;;;;;
2022/06/20 07:02:05;;;;;;;;;;;;;;;;;;;;;
2022/06/20 07:04:46;;;;;;;;;;;;;;;;;;;;;
2022/06/20 07:07:44;;;;;;;;;;;;;;;;;;;;;
2022/06/20 07:10:23;;;;;;;;;;;;;;;25.44;50.38;100803.41;5000969;28;19981;-91
2022/06/20 07:12:51;;;;;;;;;;;;;;;25.65;50.20;100803.66;4961172;28;19984;-89
2022/06/20 07:15:22;;;;;;;;;;;;;;;25.29;50.27;100800.50;4983299;28;20377;-89
2022/06/20 07:17:47;;;;;;;;;;;;;;;25.23;50.82;100801.50;4971551;28;20000;-91
2022/06/20 07:20:24;;;;;;;;;;;;;;;25.47;49.85;100797.41;5001313;28;19932;-89
2022/06/20 07:22:51;;;;;;;;;;;;;;;25.65;49.81;100798.16;5002485;28;19910;-90
2022/06/20 07:25:27;;;;;;;;;;;;;;;25.74;50.03;100790.28;4993398;28;19993;-86
2022/06/20 07:28:29;;;;;;;;;;;;;;;25.93;48.41;100796.28;4973347;28;19941;-90
2022/06/20 07:30:58;;;;;;;;;;;;;;;26.10;47.71;100788.72;4928944;29;19965;-90
2022/06/20 07:33:33;;;;;;;;;;;;;;;26.11;47.92;100790.41;4925156;29;20022;-89
2022/06/20 07:36:01;;;;;;;;;;;;;;;26.27;46.93;100794.13;4945189;29;20019;-88
2022/06/20 07:38:41;;;;;;;;;;;;;;;;;;;;;
2022/06/20 07:41:13;;;;;;;;;;;;;;;26.07;47.84;100789.25;4959972;28;19980;-91
2022/06/20 07:43:48;;;;;;;;;;;;;;;26.40;45.86;100788.16;4993111;28;19914;-91
2022/06/20 07:46:32;;;;;;;;;;;;;;;26.59;45.58;100794.13;4996325;28;19904;-90
2022/06/20 07:49:11;;;;;;;;;;;;;;;;;;;;;
2022/06/20 07:51:41;;;;;;;;;;;;;;;26.80;43.82;100786.84;4999000;28;20008;-90
2022/06/20 07:54:08;;;;;;;;;;;;;;;26.56;44.35;100791.91;4981331;28;19918;-92
2022/06/20 07:56:37;;;;;;;;;;;;;;;26.39;45.31;100785.69;4996399;28;19932;-89
2022/06/20 07:59:25;;;;;;;;;;;;;;;26.93;44.62;100786.38;4996922;28;19914;-86
2022/06/20 08:02:15;;;;;;;;;;;;;;;27.28;42.93;100786.84;4981256;28;19960;-90
2022/06/20 08:04:45;;;;;;;;;;;;;;;27.06;44.00;100785.03;4988299;28;19946;-89
2022/06/20 08:07:14;;;;;;;;;;;;;;;27.37;42.88;100793.53;4974815;28;20281;-88
2022/06/20 08:09:43;;;;;;;;;;;;;;;27.54;43.20;100783.09;4995722;28;19913;-89
2022/06/20 08:12:16;;;;;;;;;;;;;;;27.81;42.08;100783.97;4975718;28;19914;-86
2022/06/20 08:14:52;;;;;;;;;;;;;;;27.79;40.69;100784.25;4977092;28;19910;-87
2022/06/20 08:17:21;;;;;;;;;;;;;;;27.78;42.21;100780.66;4965389;28;19921;-89
2022/06/20 08:19:47;;;;;;;;;;;;;;;27.72;42.84;100787.28;4991851;28;19999;-89
2022/06/20 08:22:17;;;;;;;;;;;;;;;27.78;42.61;100782.59;4958078;28;20365;-90
2022/06/20 08:25:03;;;;;;;;;;;;;;;28.15;41.67;100782.41;4975492;28;19920;-88
2022/06/20 08:27:42;;;;;;;;;;;;;;;27.84;40.22;100781.53;4963770;28;19913;-90
2022/06/20 08:30:18;;;;;;;;;;;;;;;28.11;39.78;100781.28;4982708;28;19916;-88
2022/06/20 08:33:00;;;;;;;;;;;;;;;;;;;;;
2022/06/20 08:35:31;;;;;;;;;;;;;;;28.80;38.22;100779.91;4992277;28;20089;-89
2022/06/20 08:38:12;;;;;;;;;;;;;;;28.86;38.04;100783.47;5003636;28;19933;-89
2022/06/20 08:41:06;;;;;;;;;;;;;;;;;;;;;
2022/06/20 08:43:47;;;;;;;;;;;;;;;28.03;41.23;100778.25;4998393;28;19920;-88
2022/06/20 08:46:42;;;;;;;;;;;;;;;;;;;;;
2022/06/20 08:49:30;;;;;;;;;;;;;;;;;;;;;
2022/06/20 08:52:53;;;;;;;;;;;;;;;;;;;;;
2022/06/20 08:55:46;;;;;;;;;;;;;;;28.77;38.32;100766.59;4998690;28;19968;-89
2022/06/20 08:58:38;;;;;;;;;;;;;;;;;;;;;
2022/06/20 09:01:30;;;;;;;;;;;;;;;29.64;37.97;100760.75;5002358;28;19913;-90
2022/06/20 09:04:17;;;;;;;;;;;;;;;30.33;37.06;100747.00;4975329;28;19910;-90
2022/06/20 09:07:12;;;;;;;;;;;;;;;;;;;;;
2022/06/20 09:10:12;;;;;;;;;;;;;;;29.79;38.37;100745.19;4996045;28;19981;-91
2022/06/20 09:12:54;;;;;;;;;;;;;;;;;;;;;
2022/06/20 09:15:38;;;;;;;;;;;;;;;30.38;37.37;100744.16;4990334;28;20008;-91
2022/06/20 09:18:25;;;;;;;;;;;;;;;30.69;36.97;100735.53;4984221;28;19990;-91
2022/06/20 09:21:10;;;;;;;;;;;;;;;;;;;;;
2022/06/20 09:23:56;;;;;;;;;;;;;;;30.89;36.92;100740.06;4998294;28;19984;-90
2022/06/20 09:26:35;;;;;;;;;;;;;;;31.46;36.30;100742.97;5001934;28;19980;-91
2022/06/20 09:29:19;;;;;;;;;;;;;;;31.28;35.48;100736.22;4993067;28;19917;-90
2022/06/20 09:32:11;;;;;;;;;;;;;;;;;;;;;
2022/06/20 09:34:45;;;;;;;;;;;;;;;32.50;34.19;100744.69;4983851;28;19972;-91
2022/06/20 09:37:28;;;;;;;;;;;;;;;32.18;34.19;100738.00;4996589;28;19909;-89
2022/06/20 09:40:13;;;;;;;;;;;;;;;32.73;33.38;100730.91;4992122;28;19978;-91
2022/06/20 09:43:07;;;;;;;;;;;;;;;;;;;;;
2022/06/20 09:45:56;;;;;;;;;;;;;;;32.93;31.90;100727.72;5001653;28;19970;-91
2022/06/20 09:48:30;;;;;;;;;;;;;;;33.39;30.55;100732.34;4994020;28;19938;-89
2022/06/20 09:51:20;;;;;;;;;;;;;;;33.15;31.88;100727.00;5009310;28;19918;-90
2022/06/20 09:53:55;;;;;;;;;;;;;;;;;;;;;
2022/06/20 09:56:33;;;;;;;;;;;;;;;34.93;29.88;100722.88;4997537;28;19989;-88
2022/06/20 09:59:28;;;;;;;;;;;;;;;35.67;28.84;100724.88;5011992;28;19897;-90
2022/06/20 10:02:21;;;;;;;;;;;;;;;34.75;29.59;100721.22;4980650;28;19909;-90
2022/06/20 10:05:02;;;;;;;;;;;;;;;35.78;28.96;100722.59;4994976;28;19961;-90
2022/06/20 10:07:38;;;;;;;;;;;;;;;35.70;29.12;100717.81;4982519;28;19913;-90
2022/06/20 10:10:23;;;;;;;;;;;;;;;;;;;;;
2022/06/20 10:13:23;;;;;;;;;;;;;;;36.25;28.20;100728.31;5000695;28;20020;-92
2022/06/20 10:16:11;;;;;;;;;;;;;;;35.55;29.13;100726.66;4994359;28;19914;-85
2022/06/20 10:18:44;;;;;;;;;;;;;;;35.58;29.74;100726.81;4997845;28;19913;-85
2022/06/20 10:21:22;;;;;;;;;;;;;;;36.10;29.50;100720.44;4993561;28;19914;-85
2022/06/20 10:24:03;;;;;;;;;;;;;;;34.58;29.27;100725.53;4993157;28;19929;-87
2022/06/20 10:26:45;;;;;;;;;;;;;;;33.74;32.12;100721.53;5002092;28;20409;-85
2022/06/20 10:29:29;;;;;;;;;;;;;;;33.37;32.93;100731.81;4998718;28;19960;-84
2022/06/20 10:32:17;;;;;;;;;;;;;;;32.52;35.01;100731.31;4998214;28;19968;-90
2022/06/20 10:35:13;;;;;;;;;;;;;;;32.62;35.25;100740.59;5009801;28;19963;-89
2022/06/20 10:38:02;;;;;;;;;;;;;;;32.08;36.20;100724.28;5002219;28;19921;-89
2022/06/20 10:40:27;;;;;;;;;;;;;;;31.03;38.09;100726.31;4987013;28;19910;-87
2022/06/20 10:42:52;;;;;;;;;;;;;;;31.15;37.80;100718.38;4996691;28;19967;-87
2022/06/20 10:45:26;;;;;;;;;;;;;;;30.27;39.93;100724.03;5022482;28;20003;-88
2022/06/20 10:47:54;;;;;;;;;;;;;;;30.64;39.52;100710.63;4996193;28;19945;-83
2022/06/20 10:50:19;;;;;;;;;;;;;;;29.76;40.97;100712.50;5028992;28;19901;-86
2022/06/20 10:52:48;;;;;;;;;;;;;;;29.73;41.16;100715.84;5004674;28;20388;-88
2022/06/20 10:55:19;;;;;;;;;;;;;;;28.75;43.49;100710.75;5016184;28;19915;-86
2022/06/20 10:57:47;;;;;;;;;;;;;;;28.26;44.33;100719.66;5005681;28;19905;-86
2022/06/20 11:00:31;;;;;;;;;;;;;;;27.93;45.24;100721.88;5007322;28;19914;-91
2022/06/20 11:03:17;;;;;;;;;;;;;;;27.78;45.84;100711.59;5006548;28;19909;-88
2022/06/20 11:05:42;;;;;;;;;;;;;;;28.44;44.54;100715.47;5013656;28;19916;-86
2022/06/20 11:08:34;;;;;;;;;;;;;;;28.49;45.01;100712.72;5020534;28;19909;-86
2022/06/20 11:11:22;;;;;;;;;;;;;;;28.59;44.20;100722.97;5020457;28;19913;-89
2022/06/20 11:14:34;;;;;;;;;;;;;;;;;;;;;
2022/06/20 11:17:22;;;;;;;;;;;;;;;28.68;44.22;100713.00;4973055;28;19973;-89
2022/06/20 11:19:55;;;;;;;;;;;;;;;29.11;42.83;100705.09;5012494;28;19929;-87
2022/06/20 11:22:20;;;;;;;;;;;;;;;28.73;44.04;100707.44;5014872;28;19988;-87
2022/06/20 11:24:49;;;;;;;;;;;;;;;28.80;43.99;100710.72;5028306;28;19968;-87
2022/06/20 11:27:23;;;;;;;;;;;;;;;28.82;44.00;100711.28;4998761;28;19928;-87
2022/06/20 11:30:04;;;;;;;;;;;;;;;29.15;42.76;100706.19;5015577;28;20019;-87
2022/06/20 11:32:35;;;;;;;;;;;;;;;28.80;44.44;100698.84;5002061;28;19909;-87
2022/06/20 11:35:17;;;;;;;;;;;;;;;;;;;;;
2022/06/20 11:38:04;;;;;;;;;;;;;;;28.24;45.33;100707.19;5019952;28;19913;-90
2022/06/20 11:41:00;;;;;;;;;;;;;;;;;;;;;
2022/06/20 11:43:32;;;;;;;;;;;;;;;27.73;46.93;100695.03;5025927;28;19914;-88
2022/06/20 11:46:08;;;;;;;;;;;;;;;27.65;45.98;100708.53;4979959;28;19956;-88
2022/06/20 11:48:44;;;;;;;;;;;;;;;27.69;47.29;100702.19;4974526;28;20266;-88
2022/06/20 11:51:15;;;;;;;;;;;;;;;28.05;46.76;100696.75;5017757;28;19928;-88
2022/06/20 11:54:07;;;;;;;;;;;;;;;;;;;;;
2022/06/20 11:56:52;;;;;;;;;;;;;;;27.99;46.86;100695.91;5005459;28;19976;-87
2022/06/20 11:59:20;;;;;;;;;;;;;;;28.24;45.31;100687.84;5028461;28;19921;-88
2022/06/20 12:02:31;;;;;;;;;;;;;;;;;;;;;
2022/06/20 12:05:01;;;;;;;;;;;;;;;28.23;45.59;100689.78;4918342;29;19922;-88
2022/06/20 12:07:39;;;;;;;;;;;;;;;28.22;45.51;100679.03;4999331;28;19917;-88
2022/06/20 12:10:10;;;;;;;;;;;;;;;27.89;46.58;100682.09;4991274;28;20007;-88
2022/06/20 12:12:51;;;;;;;;;;;;;;;;;;;;;
2022/06/20 12:15:35;;;;;;;;;;;;;;;27.06;46.80;100677.44;5020983;28;19909;-88
2022/06/20 12:18:19;;;;;;;;;;;;;;;26.76;48.21;100677.31;4993634;28;19914;-88
2022/06/20 12:24:03;;;;;;;;;;;;;;;26.11;49.74;100674.72;5015064;28;19925;-87
2022/06/20 12:26:59;;;;;;;;;;;;;;;;;;;;;
2022/06/20 12:29:29;;;;;;;;;;;;;;;26.65;49.69;100679.22;4993128;28;19908;-87
2022/06/20 12:32:05;;;;;;;;;;;;;;;27.01;49.11;100677.44;5017059;28;19909;-86
2022/06/20 12:35:11;;;;;;;;;;;;;;;26.89;49.38;100674.06;4987268;28;20329;-88
2022/06/20 12:38:04;;;;;;;;;;;;;;;;;;;;;
2022/06/20 12:40:44;;;;;;;;;;;;;;;26.69;49.43;100663.78;5006803;28;20369;-89
2022/06/20 12:43:16;;;;;;;;;;;;;;;26.33;49.67;100660.78;5003514;28;19916;-88
2022/06/20 12:46:09;;;;;;;;;;;;;;;26.14;50.57;100663.16;5003238;28;20298;-90
2022/06/20 12:48:49;;;;;;;;;;;;;;;26.14;50.75;100660.38;5018351;28;19909;-87
2022/06/20 12:51:34;;;;;;;;;;;;;;;26.31;49.56;100660.22;5000982;28;19933;-88
2022/06/20 12:54:15;;;;;;;;;;;;;;;26.41;49.17;100651.19;5035238;28;20309;-88
2022/06/20 12:57:14;;;;;;;;;;;;;;;;;;;;;
2022/06/20 13:00:10;;;;;;;;;;;;;;;;;;;;;
2022/06/20 13:03:05;;;;;;;;;;;;;;;25.90;50.45;100652.50;5022361;28;19980;-90
2022/06/20 13:06:11;;;;;;;;;;;;;;;;;;;;;
2022/06/20 13:09:02;;;;;;;;;;;;;;;25.10;52.47;100639.53;5019653;28;19920;-88
2022/06/20 13:11:53;;;;;;;;;;;;;;;;;;;;;
2022/06/20 13:14:21;;;;;;;;;;;;;;;24.93;52.96;100643.22;4990295;28;19910;-88
2022/06/20 13:17:07;;;;;;;;;;;;;;;;;;;;;
2022/06/20 13:19:33;;;;;;;;;;;;;;;24.93;53.40;100621.22;4999685;28;19921;-89
2022/06/20 13:22:16;;;;;;;;;;;;;;;25.00;53.29;100616.34;4999342;28;20414;-90
2022/06/20 13:25:19;;;;;;;;;;;;;;;25.17;53.01;100615.41;5001636;28;19956;-90
2022/06/20 13:28:09;;;;;;;;;;;;;;;25.24;52.25;100614.16;4933125;29;20331;-91
2022/06/20 13:34:21;;;;;;;;;;;;;;;;;;;;;
2022/06/20 13:37:09;;;;;;;;;;;;;;;25.23;52.01;100586.91;5018115;28;19945;-89
2022/06/20 13:40:11;;;;;;;;;;;;;;;24.99;52.68;100592.69;5016746;28;19987;-90
2022/06/20 13:43:01;;;;;;;;;;;;;;;;;;;;;
2022/06/20 13:45:35;;;;;;;;;;;;;;;25.08;53.04;100578.50;4997457;28;19909;-90
2022/06/20 13:48:13;;;;;;;;;;;;;;;25.01;53.53;100585.00;4973312;28;20126;-90
2022/06/20 13:50:46;;;;;;;;;;;;;;;24.76;53.04;100581.97;4996513;28;19913;-89
2022/06/20 13:53:33;;;;;;;;;;;;;;;24.36;54.07;100588.59;5008987;28;19909;-91
2022/06/20 13:56:15;;;;;;;;;;;;;;;24.33;54.52;100578.13;4992595;28;19958;-88
2022/06/20 13:58:53;;;;;;;;;;;;;;;24.57;54.38;100585.06;4996196;28;19914;-89
2022/06/20 14:01:34;;;;;;;;;;;;;;;;;;;;;
2022/06/20 14:04:16;;;;;;;;;;;;;;;;;;;;;
2022/06/20 14:07:02;;;;;;;;;;;;;;;24.58;54.41;100559.25;5025444;28;19944;-88
2022/06/20 14:09:53;;;;;;;;;;;;;;;;;;;;;
2022/06/20 14:12:27;;;;;;;;;;;;;;;24.45;54.85;100554.09;5001306;28;20440;-89
2022/06/20 14:15:45;;;;;;;;;;;;;;;24.35;55.56;100552.06;5018738;28;19992;-89
2022/06/20 14:18:31;;;;;;;;;;;;;;;24.36;55.29;100553.72;5021392;28;19913;-88
2022/06/20 14:21:09;;;;;;;;;;;;;;;24.27;55.90;100551.66;5000106;28;19913;-91
2022/06/20 14:23:57;;;;;;;;;;;;;;;;;;;;;
2022/06/20 14:26:42;;;;;;;;;;;;;;;24.35;56.46;100542.97;5010158;28;19972;-89
2022/06/20 14:29:19;;;;;;;;;;;;;;;24.35;56.73;100549.31;4988103;28;19917;-89
2022/06/20 14:32:07;;;;;;;;;;;;;;;24.13;57.31;100531.97;5007999;28;19940;-89
2022/06/20 14:35:31;;;;;;;;;;;;;;;;;;;;;
2022/06/20 14:38:12;;;;;;;;;;;;;;;;;;;;;
2022/06/20 14:40:45;;;;;;;;;;;;;;;23.75;58.48;100531.72;5020177;28;19909;-88
2022/06/20 14:43:33;;;;;;;;;;;;;;;23.78;58.49;100528.47;5011733;28;19937;-90
2022/06/20 14:46:20;;;;;;;;;;;;;;;23.85;58.07;100531.03;4985852;28;19989;-88
2022/06/20 14:48:49;;;;;;;;;;;;;;;23.90;57.48;100524.78;4989698;28;19937;-91
2022/06/20 14:51:36;;;;;;;;;;;;;;;23.74;58.12;100531.97;5020212;28;19909;-92
2022/06/20 14:54:25;;;;;;;;;;;;;;;23.55;59.11;100539.59;5036262;28;19916;-89
2022/06/20 14:56:51;;;;;;;;;;;;;;;23.29;60.22;100539.16;5019014;28;19960;-88
2022/06/20 14:59:38;;;;;;;;;;;;;;;23.55;59.41;100539.59;5005672;28;19905;-88
2022/06/20 15:02:29;;;;;;;;;;;;;;;;;;;;;
2022/06/20 15:05:28;;;;;;;;;;;;;;;23.50;59.80;100534.03;5031188;28;19928;-88
2022/06/20 15:08:12;;;;;;;;;;;;;;;;;;;;;
2022/06/20 15:11:38;;;;;;;;;;;;;;;;;;;;;
2022/06/20 15:14:19;;;;;;;;;;;;;;;24.07;57.44;100531.09;5016210;28;20007;-90
2022/06/20 15:16:57;;;;;;;;;;;;;;;;;;;;;
2022/06/20 15:19:36;;;;;;;;;;;;;;;23.93;57.77;100535.28;5021233;28;20379;-88
2022/06/20 15:22:30;;;;;;;;;;;;;;;;;;;;;
2022/06/20 15:25:14;;;;;;;;;;;;;;;23.96;56.84;100529.28;5008662;28;20011;-87
2022/06/20 15:27:44;;;;;;;;;;;;;;;23.97;56.85;100526.25;4977383;28;20373;-86
2022/06/20 15:30:31;;;;;;;;;;;;;;;23.84;57.72;100525.81;4986395;28;19915;-91
2022/06/20 15:36:03;;;;;;;;;;;;;;;23.73;58.46;100522.03;4983536;28;20415;-89
2022/06/20 15:38:50;;;;;;;;;;;;;;;23.72;58.30;100523.97;4983698;28;19913;-89
2022/06/20 15:41:24;;;;;;;;;;;;;;;23.77;57.81;100520.50;5008528;28;19910;-88
2022/06/20 15:44:02;;;;;;;;;;;;;;;23.80;58.28;100522.72;4995964;28;19909;-86
2022/06/20 15:47:14;;;;;;;;;;;;;;;;;;;;;
2022/06/20 15:49:52;;;;;;;;;;;;;;;23.79;58.21;100523.81;4997362;28;19915;-90
2022/06/20 15:55:35;;;;;;;;;;;;;;;23.46;58.33;100514.50;5014214;28;19996;-87
2022/06/20 15:58:22;;;;;;;;;;;;;;;23.44;58.76;100502.94;4999791;28;19913;-90
2022/06/20 16:01:18;;;;;;;;;;;;;;;23.54;58.44;100516.81;5014309;28;20404;-90
2022/06/20 16:04:06;;;;;;;;;;;;;;;23.78;57.89;100512.00;4947037;28;20434;-88
2022/06/20 16:06:51;;;;;;;;;;;;;;;23.80;56.84;100507.09;5016968;28;20000;-89
2022/06/20 16:09:34;;;;;;;;;;;;;;;23.85;57.07;100516.47;5012693;28;19909;-90
2022/06/20 16:12:30;;;;;;;;;;;;;;;23.92;56.63;100512.47;4996694;28;19913;-87
2022/06/20 16:15:33;;;;;;;;;;;;;;;23.97;56.45;100517.19;5010657;28;19933;-88
2022/06/20 16:18:21;;;;;;;;;;;;;;;23.92;55.85;100511.66;5002024;28;19961;-88
2022/06/20 16:20:53;;;;;;;;;;;;;;;23.90;55.56;100513.81;5010040;28;19953;-89
2022/06/20 16:23:54;;;;;;;;;;;;;;;23.78;55.85;100505.69;5001982;28;20419;-93
2022/06/20 16:26:26;;;;;;;;;;;;;;;23.66;56.46;100503.00;4980842;28;19957;-91
2022/06/20 16:29:18;;;;;;;;;;;;;;;;;;;;;
2022/06/20 16:31:57;;;;;;;;;;;;;;;;;;;;;
2022/06/20 16:34:34;;;;;;;;;;;;;;;23.68;56.54;100494.53;5026860;28;19945;-90
2022/06/20 16:37:21;;;;;;;;;;;;;;;23.73;56.73;100484.44;5015860;28;19906;-88
2022/06/20 16:39:59;;;;;;;;;;;;;;;23.76;56.45;100492.22;5010153;28;19917;-90
2022/06/20 16:42:47;;;;;;;;;;;;;;;23.93;56.01;100494.09;4998732;28;19917;-91
2022/06/20 16:45:31;;;;;;;;;;;;;;;24.12;55.28;100498.19;5015610;28;19993;-88
2022/06/20 16:47:58;;;;;;;;;;;;;;;24.36;54.39;100489.69;5002952;28;19968;-89
2022/06/20 16:50:26;;;;;;;;;;;;;;;24.36;54.18;100490.53;5007228;28;19924;-93
2022/06/20 16:53:10;;;;;;;;;;;;;;;24.21;54.96;100491.19;5006292;28;20072;-92
2022/06/20 16:55:42;;;;;;;;;;;;;;;23.91;55.66;100499.84;5023482;28;19921;-88
2022/06/20 16:58:12;;;;;;;;;;;;;;;23.89;55.80;100496.50;4988213;28;19919;-89
2022/06/20 17:00:54;;;;;;;;;;;;;;;24.00;55.50;100501.06;5007235;28;20004;-91
2022/06/20 17:03:28;;;;;;;;;;;;;;;24.19;55.14;100498.00;4995807;28;19926;-90
2022/06/20 17:06:17;;;;;;;;;;;;;;;24.35;54.04;100499.00;4996043;28;19898;-88
2022/06/20 17:08:42;;;;;;;;;;;;;;;24.41;53.69;100496.06;4994146;28;19918;-91
2022/06/20 17:11:14;;;;;;;;;;;;;;;24.15;52.81;100483.13;5007217;28;19913;-91
2022/06/20 17:13:44;;;;;;;;;;;;;;;23.85;53.73;100491.78;5007375;28;19913;-91
2022/06/20 17:16:45;;;;;;;;;;;;;;;23.73;54.09;100487.19;5004972;28;19976;-92
2022/06/20 17:19:24;;;;;;;;;;;;;;;23.45;54.36;100490.88;4947736;29;19942;-92
2022/06/20 17:21:52;;;;;;;;;;;;;;;23.47;54.56;100494.22;4995657;28;19929;-92